sensor_id;sensor_type;location;lat;lon;timestamp;temperature;humidity
36856;DHT22;22788;51.434;6.786;2023-12-20T00:00:58;8.40;99.90
36856;DHT22;22788;51.434;6.786;2023-12-20T00:03:24;8.20;99.90
36856;DHT22;22788;51.434;6.786;2023-12-20T00:05:50;8.20;99.90
36856;DHT22;22788;51.434;6.786;2023-12-20T00:08:15;8.20;99.90
36856;DHT22;22788;51.434;6.786;2023-12-20T00:10:43;8.20;99.90
36856;DHT22;22788;51.434;6.786;2023-12-20T00:13:08;8.30;99.90
36856;DHT22;22788;51.434;6.786;2023-12-20T00:15:34;8.30;99.90
36856;DHT22;22788;51.434;6.786;2023-12-20T00:18:00;8.20;99.90
36856;DHT22;22788;51.434;6.786;2023-12-20T00:20:26;8.10;99.90
36856;DHT22;22788;51.434;6.786;2023-12-20T00:22:51;8.20;99.90
36856;DHT22;22788;51.434;6.786;2023-12-20T00:25:17;8.20;99.90
36856;DHT22;22788;51.434;6.786;2023-12-20T00:27:44;8.20;99.90
36856;DHT22;22788;51.434;6.786;2023-12-20T00:30:10;7.70;99.90
36856;DHT22;22788;51.434;6.786;2023-12-20T00:32:36;8.20;99.90
36856;DHT22;22788;51.434;6.786;2023-12-20T00:35:02;8.20;99.90
36856;DHT22;22788;51.434;6.786;2023-12-20T00:37:27;8.20;99.90
36856;DHT22;22788;51.434;6.786;2023-12-20T00:39:53;8.20;99.90
36856;DHT22;22788;51.434;6.786;2023-12-20T00:42:19;8.20;99.90
36856;DHT22;22788;51.434;6.786;2023-12-20T00:44:45;8.10;99.90
36856;DHT22;22788;51.434;6.786;2023-12-20T00:47:11;8.10;99.90
36856;DHT22;22788;51.434;6.786;2023-12-20T00:49:37;8.10;99.90
36856;DHT22;22788;51.434;6.786;2023-12-20T00:52:02;8.00;99.90
36856;DHT22;22788;51.434;6.786;2023-12-20T00:54:28;8.20;99.90
36856;DHT22;22788;51.434;6.786;2023-12-20T00:56:53;8.10;99.90
36856;DHT22;22788;51.434;6.786;2023-12-20T00:59:19;8.20;99.90
36856;DHT22;22788;51.434;6.786;2023-12-20T01:01:46;8.20;99.90
36856;DHT22;22788;51.434;6.786;2023-12-20T01:04:11;8.20;99.90
36856;DHT22;22788;51.434;6.786;2023-12-20T01:06:37;8.20;99.90
36856;DHT22;22788;51.434;6.786;2023-12-20T01:09:03;8.10;99.90
36856;DHT22;22788;51.434;6.786;2023-12-20T01:11:28;8.00;99.90
36856;DHT22;22788;51.434;6.786;2023-12-20T01:13:54;7.90;99.90
36856;DHT22;22788;51.434;6.786;2023-12-20T01:16:19;8.00;99.90
36856;DHT22;22788;51.434;6.786;2023-12-20T01:18:46;8.00;99.90
36856;DHT22;22788;51.434;6.786;2023-12-20T01:21:12;8.20;99.90
36856;DHT22;22788;51.434;6.786;2023-12-20T01:23:38;8.10;99.90
36856;DHT22;22788;51.434;6.786;2023-12-20T01:26:03;8.20;99.90
36856;DHT22;22788;51.434;6.786;2023-12-20T01:28:29;8.00;99.90
36856;DHT22;22788;51.434;6.786;2023-12-20T01:30:55;8.10;99.90
36856;DHT22;22788;51.434;6.786;2023-12-20T01:33:20;7.90;99.90
36856;DHT22;22788;51.434;6.786;2023-12-20T01:35:47;8.10;99.90
36856;DHT22;22788;51.434;6.786;2023-12-20T01:38:13;8.20;99.90
36856;DHT22;22788;51.434;6.786;2023-12-20T01:40:38;8.10;99.90
36856;DHT22;22788;51.434;6.786;2023-12-20T01:43:07;8.00;99.90
36856;DHT22;22788;51.434;6.786;2023-12-20T01:45:33;8.10;99.90
36856;DHT22;22788;51.434;6.786;2023-12-20T01:47:58;8.10;99.90
36856;DHT22;22788;51.434;6.786;2023-12-20T01:50:25;7.90;99.90
36856;DHT22;22788;51.434;6.786;2023-12-20T01:52:52;7.90;99.90
36856;DHT22;22788;51.434;6.786;2023-12-20T01:55:20;8.10;99.90
36856;DHT22;22788;51.434;6.786;2023-12-20T01:57:46;8.10;99.90
36856;DHT22;22788;51.434;6.786;2023-12-20T02:00:12;8.10;99.90
36856;DHT22;22788;51.434;6.786;2023-12-20T02:02:39;8.10;99.90
36856;DHT22;22788;51.434;6.786;2023-12-20T02:05:06;8.10;99.90
36856;DHT22;22788;51.434;6.786;2023-12-20T02:07:31;8.00;99.90
36856;DHT22;22788;51.434;6.786;2023-12-20T02:09:58;8.00;99.90
36856;DHT22;22788;51.434;6.786;2023-12-20T02:12:24;8.00;99.90
36856;DHT22;22788;51.434;6.786;2023-12-20T02:14:49;8.30;99.90
36856;DHT22;22788;51.434;6.786;2023-12-20T02:17:15;8.10;99.90
36856;DHT22;22788;51.434;6.786;2023-12-20T02:19:41;7.90;99.90
36856;DHT22;22788;51.434;6.786;2023-12-20T02:22:09;7.90;99.90
36856;DHT22;22788;51.434;6.786;2023-12-20T02:24:34;7.90;99.90
36856;DHT22;22788;51.434;6.786;2023-12-20T02:27:00;7.90;99.90
36856;DHT22;22788;51.434;6.786;2023-12-20T02:29:26;7.80;99.90
36856;DHT22;22788;51.434;6.786;2023-12-20T02:31:51;7.90;99.90
36856;DHT22;22788;51.434;6.786;2023-12-20T02:34:17;7.80;99.90
36856;DHT22;22788;51.434;6.786;2023-12-20T02:36:42;7.80;99.90
36856;DHT22;22788;51.434;6.786;2023-12-20T02:39:09;7.90;99.90
36856;DHT22;22788;51.434;6.786;2023-12-20T02:41:35;7.80;99.90
36856;DHT22;22788;51.434;6.786;2023-12-20T02:44:01;7.90;99.90
36856;DHT22;22788;51.434;6.786;2023-12-20T02:46:27;7.90;99.90
36856;DHT22;22788;51.434;6.786;2023-12-20T02:48:52;7.90;99.90
36856;DHT22;22788;51.434;6.786;2023-12-20T02:51:18;7.80;99.90
36856;DHT22;22788;51.434;6.786;2023-12-20T02:53:44;7.70;99.90
36856;DHT22;22788;51.434;6.786;2023-12-20T02:56:11;7.70;99.90
36856;DHT22;22788;51.434;6.786;2023-12-20T02:58:36;7.70;99.90
36856;DHT22;22788;51.434;6.786;2023-12-20T03:01:02;7.80;99.90
36856;DHT22;22788;51.434;6.786;2023-12-20T03:03:28;7.80;99.90
36856;DHT22;22788;51.434;6.786;2023-12-20T03:05:53;7.70;99.90
36856;DHT22;22788;51.434;6.786;2023-12-20T03:08:19;7.90;99.90
36856;DHT22;22788;51.434;6.786;2023-12-20T03:10:44;7.60;99.90
36856;DHT22;22788;51.434;6.786;2023-12-20T03:13:11;7.60;99.90
36856;DHT22;22788;51.434;6.786;2023-12-20T03:15:37;8.30;99.90
36856;DHT22;22788;51.434;6.786;2023-12-20T03:18:03;7.70;99.90
36856;DHT22;22788;51.434;6.786;2023-12-20T03:20:28;7.70;99.90
36856;DHT22;22788;51.434;6.786;2023-12-20T03:22:54;7.70;99.90
36856;DHT22;22788;51.434;6.786;2023-12-20T03:25:19;7.80;99.90
36856;DHT22;22788;51.434;6.786;2023-12-20T03:27:45;7.80;99.90
36856;DHT22;22788;51.434;6.786;2023-12-20T03:30:12;7.90;99.90
36856;DHT22;22788;51.434;6.786;2023-12-20T03:32:38;7.80;99.90
36856;DHT22;22788;51.434;6.786;2023-12-20T03:35:05;7.80;99.90
36856;DHT22;22788;51.434;6.786;2023-12-20T03:37:30;7.90;99.90
36856;DHT22;22788;51.434;6.786;2023-12-20T03:39:56;7.80;99.90
36856;DHT22;22788;51.434;6.786;2023-12-20T03:42:21;7.90;99.90
36856;DHT22;22788;51.434;6.786;2023-12-20T03:44:47;7.80;99.90
36856;DHT22;22788;51.434;6.786;2023-12-20T03:47:14;7.70;99.90
36856;DHT22;22788;51.434;6.786;2023-12-20T03:49:40;7.60;99.90
36856;DHT22;22788;51.434;6.786;2023-12-20T03:52:05;7.60;99.90
36856;DHT22;22788;51.434;6.786;2023-12-20T03:54:31;7.70;99.90
36856;DHT22;22788;51.434;6.786;2023-12-20T03:56:56;7.60;99.90
36856;DHT22;22788;51.434;6.786;2023-12-20T03:59:22;7.70;99.90
36856;DHT22;22788;51.434;6.786;2023-12-20T04:01:47;7.50;99.90
36856;DHT22;22788;51.434;6.786;2023-12-20T04:04:14;7.70;99.90
36856;DHT22;22788;51.434;6.786;2023-12-20T04:06:40;7.70;99.90
36856;DHT22;22788;51.434;6.786;2023-12-20T04:09:05;7.70;99.90
36856;DHT22;22788;51.434;6.786;2023-12-20T04:11:31;7.60;99.90
36856;DHT22;22788;51.434;6.786;2023-12-20T04:13:57;7.60;99.90
36856;DHT22;22788;51.434;6.786;2023-12-20T04:16:22;7.50;99.90
36856;DHT22;22788;51.434;6.786;2023-12-20T04:18:48;7.50;99.90
36856;DHT22;22788;51.434;6.786;2023-12-20T04:21:15;7.50;99.90
36856;DHT22;22788;51.434;6.786;2023-12-20T04:23:40;7.70;99.90
36856;DHT22;22788;51.434;6.786;2023-12-20T04:26:06;7.60;99.90
36856;DHT22;22788;51.434;6.786;2023-12-20T04:28:31;7.40;99.90
36856;DHT22;22788;51.434;6.786;2023-12-20T04:30:57;8.00;99.90
36856;DHT22;22788;51.434;6.786;2023-12-20T04:33:22;7.60;99.90
36856;DHT22;22788;51.434;6.786;2023-12-20T04:35:48;7.80;99.90
36856;DHT22;22788;51.434;6.786;2023-12-20T04:38:15;7.80;99.90
36856;DHT22;22788;51.434;6.786;2023-12-20T04:40:40;7.50;99.90
36856;DHT22;22788;51.434;6.786;2023-12-20T04:43:06;7.50;99.90
36856;DHT22;22788;51.434;6.786;2023-12-20T04:45:32;7.70;99.90
36856;DHT22;22788;51.434;6.786;2023-12-20T04:47:57;7.70;99.90
36856;DHT22;22788;51.434;6.786;2023-12-20T04:50:23;7.70;99.90
36856;DHT22;22788;51.434;6.786;2023-12-20T04:52:48;7.70;99.90
36856;DHT22;22788;51.434;6.786;2023-12-20T04:55:16;7.50;99.90
36856;DHT22;22788;51.434;6.786;2023-12-20T04:57:41;7.60;99.90
36856;DHT22;22788;51.434;6.786;2023-12-20T05:00:07;7.70;99.90
36856;DHT22;22788;51.434;6.786;2023-12-20T05:02:33;7.70;99.90
36856;DHT22;22788;51.434;6.786;2023-12-20T05:04:59;7.80;99.90
36856;DHT22;22788;51.434;6.786;2023-12-20T05:07:24;7.80;99.90
36856;DHT22;22788;51.434;6.786;2023-12-20T05:09:50;7.70;99.90
36856;DHT22;22788;51.434;6.786;2023-12-20T05:12:17;7.80;99.90
36856;DHT22;22788;51.434;6.786;2023-12-20T05:14:42;7.80;99.90
36856;DHT22;22788;51.434;6.786;2023-12-20T05:17:08;7.90;99.90
36856;DHT22;22788;51.434;6.786;2023-12-20T05:19:33;7.70;99.90
36856;DHT22;22788;51.434;6.786;2023-12-20T05:21:59;7.60;99.90
36856;DHT22;22788;51.434;6.786;2023-12-20T05:24:24;7.60;99.90
36856;DHT22;22788;51.434;6.786;2023-12-20T05:26:50;7.60;99.90
36856;DHT22;22788;51.434;6.786;2023-12-20T05:29:17;7.50;99.90
36856;DHT22;22788;51.434;6.786;2023-12-20T05:31:43;7.50;99.90
36856;DHT22;22788;51.434;6.786;2023-12-20T05:34:08;7.40;99.90
36856;DHT22;22788;51.434;6.786;2023-12-20T05:36:34;7.60;99.90
36856;DHT22;22788;51.434;6.786;2023-12-20T05:38:59;7.80;99.90
36856;DHT22;22788;51.434;6.786;2023-12-20T05:41:25;7.80;99.90
36856;DHT22;22788;51.434;6.786;2023-12-20T05:43:50;7.80;99.90
36856;DHT22;22788;51.434;6.786;2023-12-20T05:46:17;7.90;99.90
36856;DHT22;22788;51.434;6.786;2023-12-20T05:48:43;7.90;99.90
36856;DHT22;22788;51.434;6.786;2023-12-20T05:51:11;7.80;99.90
36856;DHT22;22788;51.434;6.786;2023-12-20T05:53:36;7.90;99.90
36856;DHT22;22788;51.434;6.786;2023-12-20T05:56:02;7.80;99.90
36856;DHT22;22788;51.434;6.786;2023-12-20T05:58:29;7.70;99.90
36856;DHT22;22788;51.434;6.786;2023-12-20T06:00:54;7.70;99.90
36856;DHT22;22788;51.434;6.786;2023-12-20T06:03:21;7.50;99.90
36856;DHT22;22788;51.434;6.786;2023-12-20T06:05:47;7.80;99.90
36856;DHT22;22788;51.434;6.786;2023-12-20T06:08:12;7.70;99.90
36856;DHT22;22788;51.434;6.786;2023-12-20T06:10:38;7.80;99.90
36856;DHT22;22788;51.434;6.786;2023-12-20T06:13:04;7.80;99.90
36856;DHT22;22788;51.434;6.786;2023-12-20T06:15:29;7.70;99.90
36856;DHT22;22788;51.434;6.786;2023-12-20T06:17:55;7.70;99.90
36856;DHT22;22788;51.434;6.786;2023-12-20T06:20:22;7.70;99.90
36856;DHT22;22788;51.434;6.786;2023-12-20T06:22:47;7.70;99.90
36856;DHT22;22788;51.434;6.786;2023-12-20T06:25:13;7.60;99.90
36856;DHT22;22788;51.434;6.786;2023-12-20T06:27:38;7.50;99.90
36856;DHT22;22788;51.434;6.786;2023-12-20T06:30:05;7.50;99.90
36856;DHT22;22788;51.434;6.786;2023-12-20T06:32:30;7.60;99.90
36856;DHT22;22788;51.434;6.786;2023-12-20T06:34:56;7.70;99.90
36856;DHT22;22788;51.434;6.786;2023-12-20T06:37:23;7.60;99.90
36856;DHT22;22788;51.434;6.786;2023-12-20T06:39:48;7.60;99.90
36856;DHT22;22788;51.434;6.786;2023-12-20T06:42:14;7.60;99.90
36856;DHT22;22788;51.434;6.786;2023-12-20T06:44:40;7.60;99.90
36856;DHT22;22788;51.434;6.786;2023-12-20T06:47:05;7.60;99.90
36856;DHT22;22788;51.434;6.786;2023-12-20T06:49:31;7.60;99.90
36856;DHT22;22788;51.434;6.786;2023-12-20T06:51:56;7.60;99.90
36856;DHT22;22788;51.434;6.786;2023-12-20T06:54:23;7.70;99.90
36856;DHT22;22788;51.434;6.786;2023-12-20T06:56:49;7.60;99.90
36856;DHT22;22788;51.434;6.786;2023-12-20T06:59:15;7.60;99.90
36856;DHT22;22788;51.434;6.786;2023-12-20T07:01:40;7.70;99.90
36856;DHT22;22788;51.434;6.786;2023-12-20T07:04:06;7.70;99.90
36856;DHT22;22788;51.434;6.786;2023-12-20T07:06:31;7.50;99.90
36856;DHT22;22788;51.434;6.786;2023-12-20T07:08:57;7.50;99.90
36856;DHT22;22788;51.434;6.786;2023-12-20T07:11:24;7.50;99.90
36856;DHT22;22788;51.434;6.786;2023-12-20T07:13:49;7.40;99.90
36856;DHT22;22788;51.434;6.786;2023-12-20T07:16:15;7.50;99.90
36856;DHT22;22788;51.434;6.786;2023-12-20T07:18:40;7.50;99.90
36856;DHT22;22788;51.434;6.786;2023-12-20T07:21:06;7.50;99.90
36856;DHT22;22788;51.434;6.786;2023-12-20T07:23:32;7.50;99.90
36856;DHT22;22788;51.434;6.786;2023-12-20T07:25:57;7.40;99.90
36856;DHT22;22788;51.434;6.786;2023-12-20T07:28:24;7.50;99.90
36856;DHT22;22788;51.434;6.786;2023-12-20T07:30:50;7.60;99.90
36856;DHT22;22788;51.434;6.786;2023-12-20T07:33:15;7.70;99.90
36856;DHT22;22788;51.434;6.786;2023-12-20T07:35:41;7.60;99.90
36856;DHT22;22788;51.434;6.786;2023-12-20T07:38:07;7.60;99.90
36856;DHT22;22788;51.434;6.786;2023-12-20T07:40:32;7.60;99.90
36856;DHT22;22788;51.434;6.786;2023-12-20T07:42:58;7.60;99.90
36856;DHT22;22788;51.434;6.786;2023-12-20T07:45:25;7.50;99.90
36856;DHT22;22788;51.434;6.786;2023-12-20T07:47:50;7.50;99.90
36856;DHT22;22788;51.434;6.786;2023-12-20T07:50:16;7.50;99.90
36856;DHT22;22788;51.434;6.786;2023-12-20T07:52:41;7.50;99.90
36856;DHT22;22788;51.434;6.786;2023-12-20T07:55:08;7.60;99.90
36856;DHT22;22788;51.434;6.786;2023-12-20T07:57:33;7.60;99.90
36856;DHT22;22788;51.434;6.786;2023-12-20T07:59:59;7.60;99.90
36856;DHT22;22788;51.434;6.786;2023-12-20T08:02:26;7.60;99.90
36856;DHT22;22788;51.434;6.786;2023-12-20T08:04:51;7.60;99.90
36856;DHT22;22788;51.434;6.786;2023-12-20T08:07:17;7.60;99.90
36856;DHT22;22788;51.434;6.786;2023-12-20T08:09:42;7.70;99.90
36856;DHT22;22788;51.434;6.786;2023-12-20T08:12:08;7.70;99.90
36856;DHT22;22788;51.434;6.786;2023-12-20T08:14:33;7.70;99.90
36856;DHT22;22788;51.434;6.786;2023-12-20T08:16:59;7.60;99.90
36856;DHT22;22788;51.434;6.786;2023-12-20T08:19:26;7.70;99.90
36856;DHT22;22788;51.434;6.786;2023-12-20T08:21:51;7.60;99.90
36856;DHT22;22788;51.434;6.786;2023-12-20T08:24:17;7.60;99.90
36856;DHT22;22788;51.434;6.786;2023-12-20T08:26:42;7.70;99.90
36856;DHT22;22788;51.434;6.786;2023-12-20T08:29:08;7.60;99.90
36856;DHT22;22788;51.434;6.786;2023-12-20T08:31:34;7.70;99.90
36856;DHT22;22788;51.434;6.786;2023-12-20T08:33:59;7.70;99.90
36856;DHT22;22788;51.434;6.786;2023-12-20T08:36:26;7.70;99.90
36856;DHT22;22788;51.434;6.786;2023-12-20T08:38:52;7.60;99.90
36856;DHT22;22788;51.434;6.786;2023-12-20T08:41:18;7.60;99.90
36856;DHT22;22788;51.434;6.786;2023-12-20T08:43:43;7.60;99.90
36856;DHT22;22788;51.434;6.786;2023-12-20T08:46:09;7.60;99.90
36856;DHT22;22788;51.434;6.786;2023-12-20T08:48:34;7.60;99.90
36856;DHT22;22788;51.434;6.786;2023-12-20T08:51:00;7.70;99.90
36856;DHT22;22788;51.434;6.786;2023-12-20T08:53:27;7.80;99.90
36856;DHT22;22788;51.434;6.786;2023-12-20T08:55:53;7.70;99.90
36856;DHT22;22788;51.434;6.786;2023-12-20T08:58:19;7.70;99.90
36856;DHT22;22788;51.434;6.786;2023-12-20T09:00:45;7.70;99.90
36856;DHT22;22788;51.434;6.786;2023-12-20T09:03:10;7.70;99.90
36856;DHT22;22788;51.434;6.786;2023-12-20T09:05:36;7.70;99.90
36856;DHT22;22788;51.434;6.786;2023-12-20T09:08:02;7.70;99.90
36856;DHT22;22788;51.434;6.786;2023-12-20T09:10:29;7.60;99.90
36856;DHT22;22788;51.434;6.786;2023-12-20T09:12:54;7.70;99.90
36856;DHT22;22788;51.434;6.786;2023-12-20T09:15:20;7.90;99.90
36856;DHT22;22788;51.434;6.786;2023-12-20T09:17:45;7.60;99.90
36856;DHT22;22788;51.434;6.786;2023-12-20T09:20:11;7.70;99.90
36856;DHT22;22788;51.434;6.786;2023-12-20T09:22:37;7.70;99.90
36856;DHT22;22788;51.434;6.786;2023-12-20T09:25:02;7.70;99.90
36856;DHT22;22788;51.434;6.786;2023-12-20T09:27:30;7.70;99.90
36856;DHT22;22788;51.434;6.786;2023-12-20T09:29:55;7.70;99.90
36856;DHT22;22788;51.434;6.786;2023-12-20T09:32:21;7.70;99.90
36856;DHT22;22788;51.434;6.786;2023-12-20T09:34:47;7.70;99.90
36856;DHT22;22788;51.434;6.786;2023-12-20T09:37:13;7.60;99.90
36856;DHT22;22788;51.434;6.786;2023-12-20T09:39:38;7.70;99.90
36856;DHT22;22788;51.434;6.786;2023-12-20T09:42:05;7.60;99.90
36856;DHT22;22788;51.434;6.786;2023-12-20T09:44:33;7.70;99.90
36856;DHT22;22788;51.434;6.786;2023-12-20T09:47:02;7.70;99.90
36856;DHT22;22788;51.434;6.786;2023-12-20T09:49:28;7.70;99.90
36856;DHT22;22788;51.434;6.786;2023-12-20T09:51:54;7.80;99.90
36856;DHT22;22788;51.434;6.786;2023-12-20T09:54:21;7.60;99.90
36856;DHT22;22788;51.434;6.786;2023-12-20T09:56:47;7.60;99.90
36856;DHT22;22788;51.434;6.786;2023-12-20T09:59:13;7.70;99.90
36856;DHT22;22788;51.434;6.786;2023-12-20T10:01:41;7.70;99.90
36856;DHT22;22788;51.434;6.786;2023-12-20T10:04:08;7.70;99.90
36856;DHT22;22788;51.434;6.786;2023-12-20T10:06:34;7.60;99.90
36856;DHT22;22788;51.434;6.786;2023-12-20T10:09:00;7.70;99.90
36856;DHT22;22788;51.434;6.786;2023-12-20T10:11:25;7.80;99.90
36856;DHT22;22788;51.434;6.786;2023-12-20T10:13:51;7.70;99.90
36856;DHT22;22788;51.434;6.786;2023-12-20T10:16:16;7.70;99.90
36856;DHT22;22788;51.434;6.786;2023-12-20T10:18:45;7.70;99.90
36856;DHT22;22788;51.434;6.786;2023-12-20T10:21:10;7.70;99.90
36856;DHT22;22788;51.434;6.786;2023-12-20T10:23:36;7.70;99.90
36856;DHT22;22788;51.434;6.786;2023-12-20T10:26:02;7.70;99.90
36856;DHT22;22788;51.434;6.786;2023-12-20T10:28:33;7.70;99.90
36856;DHT22;22788;51.434;6.786;2023-12-20T10:30:59;7.80;99.90
36856;DHT22;22788;51.434;6.786;2023-12-20T10:33:25;7.80;99.90
36856;DHT22;22788;51.434;6.786;2023-12-20T10:35:52;7.60;99.90
36856;DHT22;22788;51.434;6.786;2023-12-20T10:38:18;7.80;99.90
36856;DHT22;22788;51.434;6.786;2023-12-20T10:40:45;7.80;99.90
36856;DHT22;22788;51.434;6.786;2023-12-20T10:43:11;7.60;99.90
36856;DHT22;22788;51.434;6.786;2023-12-20T10:45:37;7.80;99.90
36856;DHT22;22788;51.434;6.786;2023-12-20T10:48:04;7.80;99.90
36856;DHT22;22788;51.434;6.786;2023-12-20T10:50:30;7.80;99.90
36856;DHT22;22788;51.434;6.786;2023-12-20T10:52:57;7.80;99.90
36856;DHT22;22788;51.434;6.786;2023-12-20T10:55:23;7.80;99.90
36856;DHT22;22788;51.434;6.786;2023-12-20T10:57:49;7.80;99.90
36856;DHT22;22788;51.434;6.786;2023-12-20T11:00:17;7.70;99.90
36856;DHT22;22788;51.434;6.786;2023-12-20T11:02:44;7.40;99.90
36856;DHT22;22788;51.434;6.786;2023-12-20T11:05:15;7.80;99.90
36856;DHT22;22788;51.434;6.786;2023-12-20T11:07:48;7.80;99.90
36856;DHT22;22788;51.434;6.786;2023-12-20T11:10:20;7.80;99.90
36856;DHT22;22788;51.434;6.786;2023-12-20T11:12:51;8.00;99.90
36856;DHT22;22788;51.434;6.786;2023-12-20T11:15:17;7.80;99.90
36856;DHT22;22788;51.434;6.786;2023-12-20T11:17:45;7.70;99.90
36856;DHT22;22788;51.434;6.786;2023-12-20T11:20:11;7.80;99.90
36856;DHT22;22788;51.434;6.786;2023-12-20T11:22:37;7.80;99.90
36856;DHT22;22788;51.434;6.786;2023-12-20T11:25:04;7.90;99.90
36856;DHT22;22788;51.434;6.786;2023-12-20T11:27:31;7.90;99.90
36856;DHT22;22788;51.434;6.786;2023-12-20T11:29:58;7.90;99.90
36856;DHT22;22788;51.434;6.786;2023-12-20T11:32:30;7.90;99.90
36856;DHT22;22788;51.434;6.786;2023-12-20T11:34:56;7.70;99.90
36856;DHT22;22788;51.434;6.786;2023-12-20T11:37:28;7.90;99.90
36856;DHT22;22788;51.434;6.786;2023-12-20T11:39:55;7.90;99.90
36856;DHT22;22788;51.434;6.786;2023-12-20T11:42:21;7.60;99.90
36856;DHT22;22788;51.434;6.786;2023-12-20T11:44:48;7.90;99.90
36856;DHT22;22788;51.434;6.786;2023-12-20T11:47:15;8.00;99.90
36856;DHT22;22788;51.434;6.786;2023-12-20T11:49:41;7.90;99.90
36856;DHT22;22788;51.434;6.786;2023-12-20T11:52:06;7.70;99.90
36856;DHT22;22788;51.434;6.786;2023-12-20T11:54:32;7.90;99.90
36856;DHT22;22788;51.434;6.786;2023-12-20T11:56:58;7.90;99.90
36856;DHT22;22788;51.434;6.786;2023-12-20T11:59:23;8.00;99.90
36856;DHT22;22788;51.434;6.786;2023-12-20T12:01:50;7.90;99.90
36856;DHT22;22788;51.434;6.786;2023-12-20T12:04:16;7.90;99.90
36856;DHT22;22788;51.434;6.786;2023-12-20T12:06:42;7.80;99.90
36856;DHT22;22788;51.434;6.786;2023-12-20T12:09:07;7.80;99.90
36856;DHT22;22788;51.434;6.786;2023-12-20T12:11:33;7.90;99.90
36856;DHT22;22788;51.434;6.786;2023-12-20T12:13:59;7.80;99.90
36856;DHT22;22788;51.434;6.786;2023-12-20T12:16:25;7.70;99.90
36856;DHT22;22788;51.434;6.786;2023-12-20T12:18:58;7.90;99.90
36856;DHT22;22788;51.434;6.786;2023-12-20T12:21:24;7.90;99.90
36856;DHT22;22788;51.434;6.786;2023-12-20T12:23:49;7.90;99.90
36856;DHT22;22788;51.434;6.786;2023-12-20T12:26:15;7.90;99.90
36856;DHT22;22788;51.434;6.786;2023-12-20T12:28:41;7.90;99.90
36856;DHT22;22788;51.434;6.786;2023-12-20T12:31:07;7.90;99.90
36856;DHT22;22788;51.434;6.786;2023-12-20T12:33:34;7.90;99.90
36856;DHT22;22788;51.434;6.786;2023-12-20T12:36:01;7.90;99.90
36856;DHT22;22788;51.434;6.786;2023-12-20T12:38:27;8.00;99.90
36856;DHT22;22788;51.434;6.786;2023-12-20T12:40:52;8.00;99.90
36856;DHT22;22788;51.434;6.786;2023-12-20T12:43:18;8.00;99.90
36856;DHT22;22788;51.434;6.786;2023-12-20T12:45:43;7.90;99.90
36856;DHT22;22788;51.434;6.786;2023-12-20T12:48:09;8.00;99.90
36856;DHT22;22788;51.434;6.786;2023-12-20T12:50:35;8.00;99.90
36856;DHT22;22788;51.434;6.786;2023-12-20T12:53:02;7.90;99.90
36856;DHT22;22788;51.434;6.786;2023-12-20T12:55:27;7.90;99.90
36856;DHT22;22788;51.434;6.786;2023-12-20T12:57:53;7.90;99.90
36856;DHT22;22788;51.434;6.786;2023-12-20T13:00:19;8.00;99.90
36856;DHT22;22788;51.434;6.786;2023-12-20T13:02:44;8.00;99.90
36856;DHT22;22788;51.434;6.786;2023-12-20T13:05:10;7.90;99.90
36856;DHT22;22788;51.434;6.786;2023-12-20T13:07:35;8.00;99.90
36856;DHT22;22788;51.434;6.786;2023-12-20T13:10:03;8.00;99.90
36856;DHT22;22788;51.434;6.786;2023-12-20T13:12:28;7.90;99.90
36856;DHT22;22788;51.434;6.786;2023-12-20T13:14:54;7.90;99.90
36856;DHT22;22788;51.434;6.786;2023-12-20T13:17:20;7.90;99.90
36856;DHT22;22788;51.434;6.786;2023-12-20T13:19:45;7.90;99.90
36856;DHT22;22788;51.434;6.786;2023-12-20T13:22:11;7.80;99.90
36856;DHT22;22788;51.434;6.786;2023-12-20T13:24:36;7.90;99.90
36856;DHT22;22788;51.434;6.786;2023-12-20T13:27:03;7.80;99.90
36856;DHT22;22788;51.434;6.786;2023-12-20T13:29:29;7.80;99.90
36856;DHT22;22788;51.434;6.786;2023-12-20T13:31:55;7.80;99.90
36856;DHT22;22788;51.434;6.786;2023-12-20T13:34:20;7.90;99.90
36856;DHT22;22788;51.434;6.786;2023-12-20T13:36:46;8.30;99.90
36856;DHT22;22788;51.434;6.786;2023-12-20T13:39:12;7.80;99.90
36856;DHT22;22788;51.434;6.786;2023-12-20T13:41:37;7.80;99.90
36856;DHT22;22788;51.434;6.786;2023-12-20T13:44:04;7.80;99.90
36856;DHT22;22788;51.434;6.786;2023-12-20T13:46:30;7.90;99.90
36856;DHT22;22788;51.434;6.786;2023-12-20T13:48:56;7.70;99.90
36856;DHT22;22788;51.434;6.786;2023-12-20T13:51:21;7.80;99.90
36856;DHT22;22788;51.434;6.786;2023-12-20T13:53:47;7.80;99.90
36856;DHT22;22788;51.434;6.786;2023-12-20T13:56:13;7.80;99.90
36856;DHT22;22788;51.434;6.786;2023-12-20T13:58:38;7.80;99.90
36856;DHT22;22788;51.434;6.786;2023-12-20T14:01:05;7.80;99.90
36856;DHT22;22788;51.434;6.786;2023-12-20T14:03:31;7.80;99.90
36856;DHT22;22788;51.434;6.786;2023-12-20T14:05:56;7.80;99.90
36856;DHT22;22788;51.434;6.786;2023-12-20T14:08:22;7.80;99.90
36856;DHT22;22788;51.434;6.786;2023-12-20T14:10:48;7.80;99.90
36856;DHT22;22788;51.434;6.786;2023-12-20T14:13:13;7.60;99.90
36856;DHT22;22788;51.434;6.786;2023-12-20T14:15:39;7.90;99.90
36856;DHT22;22788;51.434;6.786;2023-12-20T14:18:06;7.90;99.90
36856;DHT22;22788;51.434;6.786;2023-12-20T14:20:32;7.90;99.90
36856;DHT22;22788;51.434;6.786;2023-12-20T14:22:58;7.90;99.90
36856;DHT22;22788;51.434;6.786;2023-12-20T14:25:23;7.90;99.90
36856;DHT22;22788;51.434;6.786;2023-12-20T14:27:49;7.90;99.90
36856;DHT22;22788;51.434;6.786;2023-12-20T14:30:14;8.00;99.90
36856;DHT22;22788;51.434;6.786;2023-12-20T14:32:40;8.00;99.90
36856;DHT22;22788;51.434;6.786;2023-12-20T14:35:07;7.90;99.90
36856;DHT22;22788;51.434;6.786;2023-12-20T14:37:33;8.00;99.90
36856;DHT22;22788;51.434;6.786;2023-12-20T14:39:59;7.90;99.90
36856;DHT22;22788;51.434;6.786;2023-12-20T14:42:24;7.90;99.90
36856;DHT22;22788;51.434;6.786;2023-12-20T14:44:50;7.90;99.90
36856;DHT22;22788;51.434;6.786;2023-12-20T14:47:15;7.90;99.90
36856;DHT22;22788;51.434;6.786;2023-12-20T14:49:41;7.90;99.90
36856;DHT22;22788;51.434;6.786;2023-12-20T14:52:08;7.90;99.90
36856;DHT22;22788;51.434;6.786;2023-12-20T14:54:33;7.90;99.90
36856;DHT22;22788;51.434;6.786;2023-12-20T14:57:00;8.00;99.90
36856;DHT22;22788;51.434;6.786;2023-12-20T14:59:25;7.90;99.90
36856;DHT22;22788;51.434;6.786;2023-12-20T15:01:51;7.90;99.90
36856;DHT22;22788;51.434;6.786;2023-12-20T15:04:16;8.90;99.90
36856;DHT22;22788;51.434;6.786;2023-12-20T15:06:42;7.90;99.90
36856;DHT22;22788;51.434;6.786;2023-12-20T15:09:09;8.00;99.90
36856;DHT22;22788;51.434;6.786;2023-12-20T15:11:34;7.90;99.90
36856;DHT22;22788;51.434;6.786;2023-12-20T15:14:00;8.00;99.90
36856;DHT22;22788;51.434;6.786;2023-12-20T15:16:26;7.90;99.90
36856;DHT22;22788;51.434;6.786;2023-12-20T15:18:51;8.00;99.90
36856;DHT22;22788;51.434;6.786;2023-12-20T15:21:17;8.00;99.90
36856;DHT22;22788;51.434;6.786;2023-12-20T15:23:43;7.90;99.90
36856;DHT22;22788;51.434;6.786;2023-12-20T15:26:10;7.90;99.90
36856;DHT22;22788;51.434;6.786;2023-12-20T15:28:35;8.00;99.90
36856;DHT22;22788;51.434;6.786;2023-12-20T15:31:01;8.00;99.90
36856;DHT22;22788;51.434;6.786;2023-12-20T15:33:26;8.10;99.90
36856;DHT22;22788;51.434;6.786;2023-12-20T15:35:52;8.00;99.90